Time;durP1;ratioP1;P1;durP2;ratioP2;P2;SDS_P1;SDS_P2;PMS_P1;PMS_P2;Temp;Humidity;BMP_temperature;BMP_pressure;BME280_temperature;BME280_humidity;BME280_pressure;Samples;Min_cycle;Max_cycle;Signal;HPM_P1;HPM_P2
2022/05/21 00:00:27;;;;;;;11.88;3.97;;;19.60;99.90;;;;;;4990462;28;20072;-67
2022/05/21 00:02:55;;;;;;;17.10;5.35;;;19.40;99.90;;;;;;4992492;28;20404;-65
2022/05/21 00:05:24;;;;;;;23.23;6.90;;;19.20;99.90;;;;;;4991240;28;20333;-66
2022/05/21 00:07:52;;;;;;;16.13;6.40;;;19.00;99.90;;;;;;4991897;28;20041;-66
2022/05/21 00:10:21;;;;;;;16.35;6.38;;;18.80;99.90;;;;;;4992210;28;20052;-66
2022/05/21 00:12:48;;;;;;;13.52;5.28;;;18.60;99.90;;;;;;4991521;28;20045;-66
2022/05/21 00:15:19;;;;;;;17.13;6.43;;;18.40;99.90;;;;;;4990329;28;20058;-66
2022/05/21 00:17:46;;;;;;;17.05;5.45;;;18.30;99.90;;;;;;4990817;28;20038;-66
2022/05/21 00:22:59;;;;;;;13.55;6.47;;;18.10;99.90;;;;;;4990829;28;20120;-66
2022/05/21 00:25:25;;;;;;;11.30;6.20;;;18.00;99.90;;;;;;4992105;28;20563;-67
2022/05/21 00:27:52;;;;;;;17.35;7.75;;;17.80;99.90;;;;;;4990209;28;20050;-67
2022/05/21 00:30:19;;;;;;;13.35;6.38;;;17.80;99.90;;;;;;4990799;28;20088;-68
2022/05/21 00:32:46;;;;;;;17.63;6.22;;;17.80;99.90;;;;;;4990905;28;20056;-67
2022/05/21 00:35:13;;;;;;;20.38;7.53;;;17.70;99.90;;;;;;4989673;28;20674;-69
2022/05/21 00:37:40;;;;;;;27.45;9.88;;;17.60;99.90;;;;;;4986790;28;20412;-68
2022/05/21 00:40:07;;;;;;;21.85;8.75;;;17.60;99.90;;;;;;4985858;28;20570;-68
2022/05/21 00:42:34;;;;;;;16.73;6.25;;;17.50;99.90;;;;;;4986893;28;20471;-68
2022/05/21 00:45:02;;;;;;;15.43;6.50;;;17.30;99.90;;;;;;4987888;28;20265;-67
2022/05/21 00:47:28;;;;;;;16.02;5.82;;;17.00;99.90;;;;;;4991884;28;20053;-67
2022/05/21 00:49:55;;;;;;;;;;;16.90;99.90;;;;;;4995587;28;20072;-66
2022/05/21 00:52:25;;;;;;;20.35;8.85;;;16.70;99.90;;;;;;4995699;28;19925;-66
2022/05/21 00:55:02;;;;;;;17.63;8.88;;;16.50;99.90;;;;;;4994125;28;20057;-66
2022/05/21 00:59:47;;;;;;;18.10;8.38;;;16.40;99.90;;;;;;4996098;28;20045;-67
2022/05/21 01:00:41;;;;;;;21.00;10.15;;;16.40;99.90;;;;;;4993141;28;20058;-67
2022/05/21 01:03:10;;;;;;;22.23;9.20;;;16.40;99.90;;;;;;4995646;28;20255;-67
2022/05/21 01:05:38;;;;;;;19.55;9.65;;;16.30;99.90;;;;;;4996069;28;20511;-68
2022/05/21 01:08:06;;;;;;;18.48;9.70;;;16.30;99.90;;;;;;4995211;28;20041;-67
2022/05/21 01:10:37;;;;;;;22.58;10.35;;;16.30;99.90;;;;;;4995281;28;20120;-67
2022/05/21 01:13:08;;;;;;;26.13;11.20;;;16.40;99.90;;;;;;4994835;28;20455;-68
2022/05/21 01:15:41;;;;;;;19.42;10.82;;;16.40;99.90;;;;;;4993995;28;20608;-67
2022/05/21 01:18:09;;;;;;;15.85;11.63;;;16.40;99.90;;;;;;4993869;28;20620;-68
2022/05/21 01:20:47;;;;;;;21.52;10.48;;;16.40;99.90;;;;;;4995296;28;20054;-67
2022/05/21 01:23:16;;;;;;;26.17;12.65;;;16.50;99.90;;;;;;4994182;28;20054;-67
2022/05/21 01:25:44;;;;;;;21.25;11.48;;;16.50;99.90;;;;;;4995248;28;20038;-67
2022/05/21 01:28:14;;;;;;;27.75;11.52;;;16.50;99.90;;;;;;4994295;28;20060;-68
2022/05/21 01:30:46;;;;;;;19.80;10.98;;;16.50;99.90;;;;;;4994650;28;20060;-67
2022/05/21 01:33:17;;;;;;;18.85;10.95;;;16.50;99.90;;;;;;4995234;28;20042;-68
2022/05/21 01:35:45;;;;;;;20.33;11.15;;;16.50;99.90;;;;;;4992247;28;20427;-67
2022/05/21 01:38:14;;;;;;;21.85;11.80;;;16.50;99.90;;;;;;4994501;28;20112;-67
2022/05/21 01:40:41;;;;;;;20.98;12.45;;;16.50;99.90;;;;;;4994349;28;20077;-67
2022/05/21 01:45:54;;;;;;;17.55;11.00;;;16.50;99.90;;;;;;4993900;28;20042;-67
2022/05/21 01:48:24;;;;;;;14.60;9.95;;;16.50;99.90;;;;;;4995305;28;20115;-67
2022/05/21 01:50:52;;;;;;;19.00;9.68;;;16.50;99.90;;;;;;4994364;28;20038;-66
2022/05/21 01:53:20;;;;;;;18.52;11.98;;;16.50;99.90;;;;;;4994164;28;20511;-66
2022/05/21 01:55:47;;;;;;;23.58;10.38;;;16.50;99.90;;;;;;4990053;28;20360;-67
2022/05/21 01:58:15;;;;;;;23.83;10.55;;;16.60;99.90;;;;;;4992195;28;20046;-67
2022/05/21 02:00:43;;;;;;;16.40;11.02;;;16.50;99.90;;;;;;4993074;28;20117;-66
2022/05/21 02:03:11;;;;;;;16.45;9.73;;;16.50;99.90;;;;;;4992462;28;20554;-67
2022/05/21 02:05:39;;;;;;;15.20;9.13;;;16.50;99.90;;;;;;4991788;28;20223;-66
2022/05/21 02:08:06;;;;;;;16.42;9.20;;;16.50;99.90;;;;;;4992951;28;20495;-66
2022/05/21 02:10:33;;;;;;;20.85;8.93;;;16.50;99.90;;;;;;4994146;28;20596;-65
2022/05/21 02:13:02;;;;;;;15.05;9.45;;;16.40;99.90;;;;;;4993825;28;20391;-66
2022/05/21 02:15:30;;;;;;;19.92;8.65;;;16.40;99.90;;;;;;4993950;28;20050;-65
2022/05/21 02:17:57;;;;;;;16.45;9.45;;;16.40;99.90;;;;;;4993309;28;20154;-65
2022/05/21 02:20:24;;;;;;;13.20;6.80;;;16.40;99.90;;;;;;4992907;28;20050;-65
2022/05/21 02:22:51;;;;;;;13.07;7.05;;;16.30;99.90;;;;;;4994264;28;20271;-65
2022/05/21 02:25:18;;;;;;;;;;;16.30;99.90;;;;;;4994142;28;20047;-64
2022/05/21 02:27:45;;;;;;;15.23;6.25;;;16.20;99.90;;;;;;4994161;28;19925;-65
2022/05/21 02:30:13;;;;;;;14.73;7.65;;;16.20;99.90;;;;;;4993277;28;20046;-64
2022/05/21 02:32:40;;;;;;;11.15;7.50;;;16.20;99.90;;;;;;4991771;28;20116;-65
2022/05/21 02:35:07;;;;;;;;;;;16.10;99.90;;;;;;4994786;28;20053;-64
2022/05/21 02:40:20;;;;;;;19.92;7.47;;;16.10;99.90;;;;;;4993792;28;20511;-64
2022/05/21 02:42:47;;;;;;;11.52;6.40;;;16.10;99.90;;;;;;4993312;28;20535;-65
2022/05/21 02:45:21;;;;;;;9.65;7.07;;;16.10;99.90;;;;;;4993467;28;20038;-63
2022/05/21 02:47:48;;;;;;;17.00;7.40;;;16.10;99.90;;;;;;4992261;28;20038;-65
2022/05/21 02:50:19;;;;;;;13.52;7.57;;;16.10;99.90;;;;;;4993506;28;20125;-65
2022/05/21 02:52:46;;;;;;;22.25;7.68;;;16.10;99.90;;;;;;4993215;28;20144;-65
2022/05/21 02:55:13;;;;;;;;;;;16.10;99.90;;;;;;4994008;28;20060;-64
2022/05/21 02:57:41;;;;;;;14.60;8.35;;;16.10;99.90;;;;;;4992868;28;19925;-65
2022/05/21 03:00:14;;;;;;;13.10;7.25;;;16.10;99.90;;;;;;4994175;28;20447;-65
2022/05/21 03:02:41;;;;;;;21.25;8.55;;;16.10;99.90;;;;;;4993256;28;20129;-65
2022/05/21 03:05:09;;;;;;;12.38;7.88;;;16.10;99.90;;;;;;4991878;28;20038;-64
2022/05/21 03:07:54;;;;;;;17.00;8.65;;;16.10;99.90;;;;;;4992184;28;20121;-65
2022/05/21 03:10:27;;;;;;;16.13;8.93;;;16.10;99.90;;;;;;4991197;28;20057;-65
2022/05/21 03:13:02;;;;;;;16.05;8.57;;;16.10;99.90;;;;;;4992914;28;20050;-65
2022/05/21 03:15:35;;;;;;;18.30;9.27;;;16.10;99.90;;;;;;4989303;28;20042;-65
2022/05/21 03:18:08;;;;;;;21.10;10.48;;;16.10;99.90;;;;;;4983728;28;20054;-65
2022/05/21 03:20:35;;;;;;;14.98;8.07;;;16.10;99.90;;;;;;4987453;28;20374;-65
2022/05/21 03:23:02;;;;;;;15.32;7.70;;;16.00;99.90;;;;;;4992560;28;20254;-64
2022/05/21 03:25:29;;;;;;;16.17;8.43;;;16.00;99.90;;;;;;4991762;28;20351;-64
2022/05/21 03:27:56;;;;;;;12.13;7.65;;;16.00;99.90;;;;;;4993195;28;20490;-64
2022/05/21 03:30:27;;;;;;;11.13;7.68;;;16.00;99.90;;;;;;4992430;28;20408;-64
2022/05/21 03:32:54;;;;;;;19.65;7.45;;;16.00;99.90;;;;;;4991499;28;20466;-64
2022/05/21 03:35:22;;;;;;;14.40;8.30;;;16.00;99.90;;;;;;4992709;28;20071;-64
2022/05/21 03:37:51;;;;;;;18.63;8.23;;;16.00;99.90;;;;;;4992392;28;20054;-64
2022/05/21 03:40:24;;;;;;;20.45;9.00;;;16.00;99.90;;;;;;4992927;28;20547;-65
2022/05/21 03:42:51;;;;;;;13.95;7.68;;;16.00;99.90;;;;;;4992640;28;20053;-64
2022/05/21 03:45:19;;;;;;;11.55;7.45;;;16.00;99.90;;;;;;4991953;28;20279;-64
2022/05/21 03:47:46;;;;;;;15.40;8.90;;;16.00;99.90;;;;;;4990530;28;20290;-64
2022/05/21 03:50:17;;;;;;;18.65;8.50;;;16.00;99.90;;;;;;4992940;28;20053;-64
2022/05/21 03:52:44;;;;;;;15.77;7.45;;;16.00;99.90;;;;;;4991741;28;20479;-64
2022/05/21 03:55:14;;;;;;;11.98;7.55;;;16.00;99.90;;;;;;4992439;28;20077;-64
2022/05/21 03:57:42;;;;;;;11.68;6.78;;;16.00;99.90;;;;;;4992046;28;20486;-64
2022/05/21 04:00:12;;;;;;;11.25;6.82;;;16.10;99.90;;;;;;4990527;28;20065;-64
2022/05/21 04:02:40;;;;;;;8.07;5.68;;;16.10;99.90;;;;;;4992800;28;20053;-63
2022/05/21 04:05:08;;;;;;;13.40;6.90;;;16.10;99.90;;;;;;4991850;28;20049;-64
2022/05/21 04:07:37;;;;;;;11.13;5.43;;;16.10;99.90;;;;;;4992292;28;20049;-64
2022/05/21 04:10:06;;;;;;;10.80;7.97;;;16.10;99.90;;;;;;4991578;28;20104;-64
2022/05/21 04:12:33;;;;;;;9.73;6.85;;;16.10;99.90;;;;;;4992571;28;20510;-64
2022/05/21 04:15:01;;;;;;;6.28;5.38;;;16.10;99.90;;;;;;4992161;28;20197;-64
2022/05/21 04:17:28;;;;;;;7.95;6.70;;;16.10;99.90;;;;;;4989750;28;20149;-64
2022/05/21 04:19:55;;;;;;;10.75;7.45;;;16.10;99.90;;;;;;4991925;28;20085;-63
2022/05/21 04:22:22;;;;;;;9.95;5.88;;;16.10;99.90;;;;;;4991435;28;20403;-64
2022/05/21 04:24:48;;;;;;;12.80;6.53;;;16.10;99.90;;;;;;5007314;28;20104;-63
2022/05/21 04:27:15;;;;;;;;;;;16.10;99.90;;;;;;4992524;28;20564;-63
2022/05/21 04:29:42;;;;;;;6.07;5.43;;;16.10;99.90;;;;;;4992975;28;20574;-64
2022/05/21 04:32:09;;;;;;;6.82;6.13;;;16.10;99.90;;;;;;4991712;28;20671;-64
2022/05/21 04:34:36;;;;;;;6.20;5.18;;;16.10;99.90;;;;;;4992379;28;20053;-64
2022/05/21 04:37:03;;;;;;;7.70;5.85;;;16.10;99.90;;;;;;4992022;28;20050;-64
2022/05/21 04:39:30;;;;;;;8.65;7.00;;;16.10;99.90;;;;;;4991046;28;20058;-63
2022/05/21 04:41:58;;;;;;;9.10;6.22;;;16.10;99.90;;;;;;4990693;28;20054;-64
2022/05/21 04:44:30;;;;;;;7.72;5.85;;;16.10;99.90;;;;;;4991896;28;20054;-64
2022/05/21 04:46:58;;;;;;;9.60;6.35;;;16.20;99.90;;;;;;4991056;28;20117;-65
2022/05/21 04:49:25;;;;;;;9.90;6.50;;;16.20;99.90;;;;;;4988453;28;20056;-65
2022/05/21 04:51:54;;;;;;;7.97;5.47;;;16.20;99.90;;;;;;4989044;28;20343;-65
2022/05/21 04:54:21;;;;;;;7.38;5.90;;;16.20;99.90;;;;;;4987621;28;20054;-64
2022/05/21 04:56:48;;;;;;;8.80;6.72;;;16.20;99.90;;;;;;4989416;28;20050;-65
2022/05/21 04:59:15;;;;;;;10.48;6.53;;;16.20;99.90;;;;;;4988312;28;20050;-65
2022/05/21 05:01:42;;;;;;;10.73;6.25;;;16.20;99.90;;;;;;4991571;28;20523;-66
2022/05/21 05:04:09;;;;;;;8.80;6.68;;;16.30;99.90;;;;;;4989285;28;20769;-66
2022/05/21 05:06:38;;;;;;;17.48;9.73;;;16.30;99.90;;;;;;4987690;28;20095;-65
2022/05/21 05:09:09;;;;;;;13.13;9.50;;;16.30;99.90;;;;;;4989497;28;20038;-66
2022/05/21 05:11:36;;;;;;;12.13;8.60;;;16.30;99.90;;;;;;4986174;28;20123;-66
2022/05/21 05:14:03;;;;;;;10.95;7.35;;;16.30;99.90;;;;;;4988369;28;20151;-65
2022/05/21 05:16:30;;;;;;;9.48;8.10;;;16.40;99.90;;;;;;4986279;28;20504;-65
2022/05/21 05:18:57;;;;;;;10.23;7.40;;;16.40;99.90;;;;;;4986886;28;20041;-65
2022/05/21 05:21:24;;;;;;;13.68;8.45;;;16.40;99.90;;;;;;4987769;28;20053;-65
2022/05/21 05:23:51;;;;;;;9.75;7.93;;;16.40;99.90;;;;;;4989796;28;20050;-66
2022/05/21 05:26:19;;;;;;;14.23;8.50;;;16.40;99.90;;;;;;4987667;28;20041;-65
2022/05/21 05:28:46;;;;;;;14.50;9.32;;;16.50;99.90;;;;;;4987977;28;20074;-65
2022/05/21 05:31:13;;;;;;;9.98;8.07;;;16.50;99.90;;;;;;4990368;28;20070;-66
2022/05/21 05:33:40;;;;;;;13.57;9.63;;;16.50;99.90;;;;;;4988342;28;20587;-65
2022/05/21 05:36:08;;;;;;;10.68;8.25;;;16.50;99.90;;;;;;4991108;28;20049;-65
2022/05/21 05:38:35;;;;;;;17.80;10.27;;;16.50;99.90;;;;;;4990386;28;20380;-65
2022/05/21 05:41:05;;;;;;;18.50;11.70;;;16.50;99.90;;;;;;4990542;28;20622;-65
2022/05/21 05:43:32;;;;;;;22.58;11.55;;;16.50;99.90;;;;;;4991166;28;20057;-65
2022/05/21 05:45:59;;;;;;;13.18;9.85;;;16.50;99.90;;;;;;4990819;28;20133;-65
2022/05/21 05:48:28;;;;;;;12.13;9.73;;;16.50;99.90;;;;;;4990776;28;20428;-65
2022/05/21 05:50:57;;;;;;;11.20;8.88;;;16.40;99.90;;;;;;4990547;28;20149;-65
2022/05/21 05:53:25;;;;;;;16.02;9.27;;;16.50;99.90;;;;;;4990754;28;20056;-65
2022/05/21 05:55:52;;;;;;;12.80;8.30;;;16.50;99.90;;;;;;4990106;28;20046;-65
2022/05/21 06:01:07;;;;;;;10.63;9.20;;;16.50;99.90;;;;;;4989595;28;20053;-65
2022/05/21 06:03:34;;;;;;;15.27;9.45;;;16.40;99.90;;;;;;4988497;28;20587;-66
2022/05/21 06:06:02;;;;;;;14.32;9.43;;;16.50;99.90;;;;;;4990918;28;20144;-65
2022/05/21 06:08:29;;;;;;;10.18;8.55;;;16.40;99.90;;;;;;4990890;28;20100;-67
2022/05/21 06:10:56;;;;;;;12.57;8.70;;;16.40;99.90;;;;;;4988954;28;20698;-67
2022/05/21 06:13:23;;;;;;;;;;;16.50;99.90;;;;;;4989960;28;20041;-66
2022/05/21 06:15:50;;;;;;;20.35;11.20;;;16.50;99.90;;;;;;4991203;28;19921;-66
2022/05/21 06:18:17;;;;;;;;;;;16.50;99.90;;;;;;4989644;28;20383;-65
2022/05/21 06:20:44;;;;;;;14.38;9.75;;;16.60;99.90;;;;;;4984560;28;19925;-65
2022/05/21 06:23:12;;;;;;;14.57;10.25;;;16.60;99.90;;;;;;4986836;28;20498;-65
2022/05/21 06:25:39;;;;;;;16.33;9.10;;;16.70;99.90;;;;;;4989424;28;20127;-64
2022/05/21 06:28:07;;;;;;;11.13;9.32;;;16.70;99.90;;;;;;4988891;28;20061;-65
2022/05/21 06:30:36;;;;;;;10.05;8.48;;;16.70;99.90;;;;;;4989190;28;20050;-65
2022/05/21 06:33:25;;;;;;;11.20;9.13;;;16.70;99.90;;;;;;4989338;28;20266;-65
2022/05/21 06:36:22;;;;;;;9.27;8.20;;;16.70;99.90;;;;;;4987946;28;20082;-65
2022/05/21 06:38:49;;;;;;;12.23;9.82;;;16.80;99.90;;;;;;4985455;28;20054;-64
2022/05/21 06:41:16;;;;;;;10.48;8.18;;;16.80;99.90;;;;;;4988204;28;20046;-65
2022/05/21 06:43:47;;;;;;;12.20;8.88;;;16.90;99.90;;;;;;4987893;28;20334;-66
2022/05/21 06:46:14;;;;;;;16.20;8.85;;;16.90;99.90;;;;;;4991142;28;20498;-66
2022/05/21 06:48:41;;;;;;;13.45;8.43;;;17.00;99.90;;;;;;4991686;28;20152;-64
2022/05/21 06:51:08;;;;;;;11.23;9.25;;;17.00;99.90;;;;;;4992915;28;20500;-66
2022/05/21 06:53:36;;;;;;;14.70;10.32;;;17.00;99.90;;;;;;4993147;28;20048;-66
2022/05/21 06:56:12;;;;;;;9.98;7.75;;;17.00;99.90;;;;;;4991898;28;20054;-67
2022/05/21 06:58:39;;;;;;;8.50;7.22;;;17.00;99.90;;;;;;4990434;28;20053;-65
2022/05/21 07:01:06;;;;;;;14.93;9.57;;;17.10;99.90;;;;;;4992187;28;20045;-65
2022/05/21 07:03:34;;;;;;;12.02;8.18;;;17.20;99.90;;;;;;4991944;28;20773;-66
2022/05/21 07:08:47;;;;;;;11.73;8.35;;;17.20;99.90;;;;;;4992513;28;20041;-65
2022/05/21 07:11:14;;;;;;;;;;;17.20;99.90;;;;;;4992152;28;20042;-65
2022/05/21 07:13:42;;;;;;;9.10;7.43;;;17.20;99.90;;;;;;4991361;28;19925;-65
2022/05/21 07:16:08;;;;;;;10.50;8.52;;;17.20;99.90;;;;;;4990325;28;20034;-66
2022/05/21 07:18:35;;;;;;;;;;;17.30;99.90;;;;;;4992206;28;20052;-66
2022/05/21 07:21:02;;;;;;;17.70;10.30;;;17.30;99.90;;;;;;4991250;28;20181;-67
2022/05/21 07:23:29;;;;;;;13.70;9.23;;;17.40;99.90;;;;;;4990695;28;20097;-68
2022/05/21 07:25:56;;;;;;;8.23;7.28;;;17.40;99.90;;;;;;4992920;28;20053;-68
2022/05/21 07:28:24;;;;;;;15.05;10.23;;;17.50;99.90;;;;;;4992217;28;20061;-68
2022/05/21 07:30:52;;;;;;;15.55;9.50;;;17.50;99.90;;;;;;4990304;28;20431;-68
2022/05/21 07:33:21;;;;;;;13.52;9.52;;;17.50;99.90;;;;;;4992222;28;20038;-68
2022/05/21 07:35:49;;;;;;;13.35;9.50;;;17.60;99.90;;;;;;4992254;28;20045;-69
2022/05/21 07:38:17;;;;;;;19.90;9.93;;;17.60;99.90;;;;;;4992374;28;20149;-68
2022/05/21 07:40:45;;;;;;;14.77;9.40;;;17.70;99.90;;;;;;4991574;28;20054;-69
2022/05/21 07:43:14;;;;;;;14.27;10.00;;;17.70;99.90;;;;;;4992980;28;20577;-68
2022/05/21 07:45:42;;;;;;;12.02;8.38;;;17.70;99.90;;;;;;4991781;28;20153;-68
2022/05/21 07:48:12;;;;;;;12.45;9.27;;;17.80;99.90;;;;;;4991514;28;20054;-68
2022/05/21 07:50:45;;;;;;;12.05;8.68;;;17.90;99.90;;;;;;4991607;28;20050;-69
2022/05/21 07:53:19;;;;;;;11.32;8.20;;;17.90;99.90;;;;;;4989211;28;20483;-68
2022/05/21 07:55:50;;;;;;;10.35;8.70;;;17.90;99.90;;;;;;4991463;28;20045;-67
2022/05/21 07:58:22;;;;;;;13.98;9.38;;;18.00;99.90;;;;;;4991027;28;20065;-67
2022/05/21 08:00:50;;;;;;;11.43;7.68;;;18.00;99.90;;;;;;4993728;28;20042;-69
2022/05/21 08:03:19;;;;;;;13.25;9.10;;;18.00;99.90;;;;;;4991972;28;20065;-69
2022/05/21 08:05:46;;;;;;;14.27;8.60;;;18.00;99.90;;;;;;4992531;28;20045;-69
2022/05/21 08:08:14;;;;;;;14.40;9.52;;;18.00;99.90;;;;;;4992310;28;20061;-69
2022/05/21 08:10:42;;;;;;;11.48;9.00;;;18.10;99.90;;;;;;4992713;28;20132;-69
2022/05/21 08:13:10;;;;;;;18.73;10.52;;;18.10;99.90;;;;;;4992209;28;20575;-67
2022/05/21 08:15:39;;;;;;;16.70;9.68;;;18.10;99.90;;;;;;4992942;28;20563;-68
2022/05/21 08:18:06;;;;;;;11.82;8.35;;;18.20;99.90;;;;;;4987962;28;20424;-67
2022/05/21 08:20:34;;;;;;;13.93;9.38;;;18.20;99.90;;;;;;4987305;28;20522;-68
2022/05/21 08:28:35;;;;;;;15.45;10.30;;;18.30;99.90;;;;;;4971552;28;20563;-67
2022/05/21 08:31:03;;;;;;;15.63;10.70;;;18.40;99.90;;;;;;4986726;28;20062;-67
2022/05/21 08:33:31;;;;;;;10.98;9.00;;;18.50;99.90;;;;;;4972500;28;20085;-67
2022/05/21 08:35:59;;;;;;;10.48;8.35;;;18.50;99.90;;;;;;4971161;28;20333;-67
2022/05/21 08:38:26;;;;;;;9.25;7.85;;;18.60;99.90;;;;;;4971995;28;20046;-68
2022/05/21 08:41:19;;;;;;;10.48;8.02;;;18.70;99.90;;;;;;4979794;28;20294;-68
2022/05/21 08:44:06;;;;;;;10.95;8.48;;;18.80;99.90;;;;;;4991609;28;20636;-68
2022/05/21 08:47:01;;;;;;;15.70;9.95;;;18.90;99.90;;;;;;4989498;28;20082;-68
2022/05/21 08:49:30;;;;;;;14.88;9.60;;;18.80;99.90;;;;;;4990760;28;20200;-68
2022/05/21 08:52:18;;;;;;;14.50;9.32;;;18.80;99.90;;;;;;4991963;28;20132;-67
2022/05/21 08:54:48;;;;;;;15.23;9.27;;;18.70;99.90;;;;;;4991026;28;20052;-65
2022/05/21 08:57:21;;;;;;;12.95;9.98;;;18.70;99.90;;;;;;4989353;28;20050;-66
2022/05/21 09:00:01;;;;;;;17.30;11.18;;;18.70;99.90;;;;;;4990560;28;20247;-66
2022/05/21 09:02:32;;;;;;;13.77;9.35;;;18.80;99.90;;;;;;4990654;28;20057;-66
2022/05/21 09:05:02;;;;;;;14.95;9.52;;;18.80;99.90;;;;;;4989070;28;20049;-66
2022/05/21 09:07:38;;;;;;;10.77;7.55;;;18.80;99.90;;;;;;4994211;28;20053;-65
2022/05/21 09:10:18;;;;;;;8.73;7.10;;;18.80;99.90;;;;;;4994793;28;20522;-66
2022/05/21 09:12:50;;;;;;;11.73;6.95;;;18.90;99.90;;;;;;4994349;28;20482;-65
2022/05/21 09:18:28;;;;;;;10.95;7.43;;;19.00;99.90;;;;;;4990944;28;20496;-66
2022/05/21 09:21:00;;;;;;;9.23;6.65;;;19.00;99.90;;;;;;4993100;28;20077;-66
2022/05/21 09:23:47;;;;;;;9.32;6.43;;;19.00;99.90;;;;;;4990588;28;20065;-68
2022/05/21 09:26:15;;;;;;;15.02;6.05;;;18.90;99.90;;;;;;4986403;28;20042;-67
2022/05/21 09:28:42;;;;;;;8.20;5.43;;;18.90;99.90;;;;;;4994882;28;20050;-68
2022/05/21 09:31:10;;;;;;;7.32;6.13;;;18.90;99.90;;;;;;4993993;28;20682;-68
2022/05/21 09:33:43;;;;;;;10.45;7.22;;;19.00;99.90;;;;;;4994197;28;20044;-68
2022/05/21 09:36:18;;;;;;;8.40;5.93;;;19.00;99.90;;;;;;4994034;28;21157;-68
2022/05/21 09:38:54;;;;;;;12.32;8.00;;;19.00;99.90;;;;;;4993888;28;20119;-68
2022/05/21 09:41:26;;;;;;;8.93;6.10;;;18.90;99.90;;;;;;4994286;28;20056;-67
2022/05/21 09:46:44;;;;;;;7.82;6.30;;;18.90;99.90;;;;;;4993530;28;20061;-68
2022/05/21 09:49:28;;;;;;;9.13;7.45;;;18.90;99.90;;;;;;4993585;28;20044;-68
2022/05/21 09:52:04;;;;;;;7.90;5.97;;;18.90;99.90;;;;;;4990843;28;20316;-67
2022/05/21 09:54:35;;;;;;;8.00;6.97;;;18.80;99.90;;;;;;4993778;28;20045;-68
2022/05/21 09:57:03;;;;;;;10.10;7.28;;;18.90;99.90;;;;;;4992231;28;20058;-69
2022/05/21 09:59:33;;;;;;;10.25;6.78;;;18.90;99.90;;;;;;4992087;28;20507;-68
2022/05/21 10:02:22;;;;;;;10.00;7.03;;;18.80;99.90;;;;;;4992189;28;20038;-69
2022/05/21 10:04:57;;;;;;;10.07;7.38;;;18.80;99.90;;;;;;4990030;28;20046;-68
2022/05/21 10:11:00;;;;;;;14.15;6.82;;;18.80;99.90;;;;;;4992753;28;20042;-66
2022/05/21 10:13:43;;;;;;;10.20;6.03;;;18.80;99.90;;;;;;4993401;28;20065;-67
2022/05/21 10:16:38;;;;;;;9.32;6.57;;;18.80;99.90;;;;;;4992142;28;20045;-67
2022/05/21 10:19:24;;;;;;;9.70;6.22;;;18.80;99.90;;;;;;4993735;28;20041;-67
2022/05/21 10:22:26;;;;;;;10.18;6.45;;;18.80;99.90;;;;;;4992345;28;20046;-67
2022/05/21 10:25:25;;;;;;;8.00;5.95;;;18.80;99.90;;;;;;4991751;28;20041;-67
2022/05/21 10:28:01;;;;;;;7.90;6.25;;;18.80;99.90;;;;;;4960591;28;20148;-67
2022/05/21 10:31:15;;;;;;;11.40;7.55;;;18.90;99.90;;;;;;4973469;28;20101;-66
2022/05/21 10:33:44;;;;;;;12.18;7.68;;;19.00;99.90;;;;;;4950871;28;20386;-67
2022/05/21 10:36:35;;;;;;;10.00;7.32;;;19.10;99.90;;;;;;4972701;28;20082;-66
2022/05/21 10:39:17;;;;;;;8.48;5.88;;;19.30;99.90;;;;;;4973013;28;20042;-67
2022/05/21 10:42:08;;;;;;;11.27;7.65;;;19.40;99.90;;;;;;4987004;28;20519;-67
2022/05/21 10:45:10;;;;;;;8.77;6.55;;;19.50;99.90;;;;;;4991999;28;20046;-68
2022/05/21 10:48:08;;;;;;;11.77;7.18;;;19.60;99.90;;;;;;4992603;28;20104;-68
2022/05/21 10:51:11;;;;;;;10.73;6.30;;;19.60;99.90;;;;;;4992251;28;20045;-68
2022/05/21 10:53:47;;;;;;;10.45;6.05;;;19.70;99.90;;;;;;4992168;28;20053;-68
2022/05/21 10:56:34;;;;;;;14.80;5.72;;;19.80;99.90;;;;;;4992872;28;20038;-68
2022/05/21 10:59:38;;;;;;;9.97;5.53;;;20.00;99.90;;;;;;4992478;28;20064;-68
2022/05/21 11:02:27;;;;;;;6.43;4.93;;;20.20;99.90;;;;;;4992771;28;20065;-68
2022/05/21 11:05:15;;;;;;;6.88;4.45;;;20.50;99.90;;;;;;4992463;28;20071;-69
2022/05/21 11:08:09;;;;;;;6.45;4.22;;;20.70;99.90;;;;;;4992704;28;20583;-68
2022/05/21 11:10:49;;;;;;;7.05;3.95;;;20.90;99.90;;;;;;4991058;28;20056;-68
2022/05/21 11:13:32;;;;;;;7.00;4.97;;;21.20;99.90;;;;;;4993215;28;20543;-69
2022/05/21 11:16:29;;;;;;;5.38;4.05;;;21.40;99.90;;;;;;4990847;28;20519;-69
2022/05/21 11:19:22;;;;;;;11.30;4.10;;;21.60;99.90;;;;;;4992175;28;20530;-69
2022/05/21 11:21:58;;;;;;;7.00;3.38;;;21.70;99.90;;;;;;4990690;28;20045;-69
2022/05/21 11:24:40;;;;;;;13.55;3.65;;;21.70;99.90;;;;;;4990304;28;20242;-69
2022/05/21 11:27:56;;;;;;;6.50;4.68;;;21.70;99.90;;;;;;4975285;28;20273;-70
2022/05/21 11:30:23;;;;;;;9.57;4.68;;;21.80;99.90;;;;;;4950008;28;20328;-70
2022/05/21 11:38:58;;;;;;;6.60;4.30;;;21.60;99.90;;;;;;4970839;28;20050;-69
2022/05/21 11:41:54;;;;;;;8.50;3.30;;;21.60;99.90;;;;;;4975896;28;20086;-67
2022/05/21 11:47:22;;;;;;;;;;;21.60;99.90;;;;;;4975316;28;20061;-67
2022/05/21 11:49:49;;;;;;;4.55;3.42;;;21.60;99.90;;;;;;4975961;28;20028;-67
2022/05/21 11:52:28;;;;;;;7.05;3.47;;;21.50;99.90;;;;;;4976689;28;20074;-66
2022/05/21 11:54:55;;;;;;;4.22;2.90;;;21.40;99.90;;;;;;4990193;28;20109;-67
2022/05/21 11:57:30;;;;;;;5.07;3.13;;;21.40;99.90;;;;;;4976875;28;20050;-67
2022/05/21 11:59:57;;;;;;;5.00;3.38;;;21.40;99.90;;;;;;4989676;28;20081;-67
2022/05/21 12:02:27;;;;;;;6.20;2.90;;;21.40;99.90;;;;;;4974558;28;20045;-69
2022/05/21 12:04:58;;;;;;;3.50;3.20;;;21.50;99.90;;;;;;4990950;28;20088;-69
2022/05/21 12:07:40;;;;;;;5.07;3.15;;;21.40;99.90;;;;;;4990639;28;20154;-69
2022/05/21 12:10:52;;;;;;;8.68;4.10;;;21.40;99.90;;;;;;4989899;28;20084;-69
2022/05/21 12:13:22;;;;;;;8.27;3.90;;;21.40;99.90;;;;;;4983016;28;20138;-70
2022/05/21 12:15:52;;;;;;;4.70;3.38;;;21.40;99.90;;;;;;4990142;28;20046;-69
2022/05/21 12:18:26;;;;;;;10.23;3.95;;;21.30;99.90;;;;;;4988165;28;20049;-70
2022/05/21 12:20:55;;;;;;;3.58;2.90;;;21.30;99.90;;;;;;4988441;28;20244;-70
2022/05/21 12:23:40;;;;;;;5.30;3.08;;;21.30;99.90;;;;;;4984229;28;20419;-69
2022/05/21 12:26:18;;;;;;;4.53;3.05;;;21.30;99.90;;;;;;4987382;28;20565;-70
2022/05/21 12:29:19;;;;;;;6.03;3.08;;;21.20;99.90;;;;;;4986795;28;20301;-70
2022/05/21 12:31:54;;;;;;;5.68;4.25;;;21.30;99.90;;;;;;5003254;28;20049;-69
2022/05/21 12:34:46;;;;;;;7.15;3.88;;;21.40;99.90;;;;;;4985337;28;20454;-70
2022/05/21 12:37:25;;;;;;;4.10;2.90;;;21.50;99.90;;;;;;4986847;28;20046;-70
2022/05/21 12:40:12;;;;;;;6.72;3.58;;;21.40;99.90;;;;;;4988391;28;20042;-70
2022/05/21 12:42:54;;;;;;;7.63;3.85;;;21.50;99.90;;;;;;4990498;28;20395;-70
2022/05/21 12:45:32;;;;;;;13.10;4.63;;;21.50;99.90;;;;;;4991421;28;20209;-70
2022/05/21 12:48:22;;;;;;;10.35;4.40;;;21.40;99.90;;;;;;4991246;28;20046;-70
2022/05/21 12:50:57;;;;;;;10.40;4.28;;;21.20;99.90;;;;;;4991492;28;20507;-70
2022/05/21 12:53:33;;;;;;;9.30;4.40;;;21.10;99.90;;;;;;4992024;28;20280;-71
2022/05/21 12:56:06;;;;;;;5.95;4.00;;;21.00;99.90;;;;;;4991581;28;20041;-70
2022/05/21 12:58:32;;;;;;;7.40;3.92;;;20.90;99.90;;;;;;4989605;28;20265;-70
2022/05/21 13:01:00;;;;;;;10.88;3.92;;;20.80;99.90;;;;;;4991065;28;20132;-70
2022/05/21 13:03:33;;;;;;;9.93;5.20;;;20.70;99.90;;;;;;4991657;28;20077;-69
2022/05/21 13:06:12;;;;;;;9.00;4.30;;;20.70;99.90;;;;;;4990826;28;20129;-70
2022/05/21 13:08:41;;;;;;;9.77;4.68;;;20.70;99.90;;;;;;4991825;28;20508;-71
2022/05/21 13:11:20;;;;;;;7.95;4.78;;;20.70;99.90;;;;;;4991076;28;20038;-71
2022/05/21 13:14:03;;;;;;;17.13;14.68;;;20.70;99.90;;;;;;5006405;28;20490;-71
2022/05/21 13:16:30;;;;;;;11.13;7.47;;;20.60;99.90;;;;;;4990661;28;20568;-71
2022/05/21 13:19:34;;;;;;;8.45;4.35;;;20.70;99.90;;;;;;4990708;28;20477;-70
2022/05/21 13:22:43;;;;;;;8.60;4.45;;;20.70;99.90;;;;;;4988585;28;20061;-71
2022/05/21 13:25:12;;;;;;;12.85;4.70;;;20.70;99.90;;;;;;4990956;28;20164;-71
2022/05/21 13:27:57;;;;;;;6.32;3.80;;;20.70;99.90;;;;;;4967464;28;20048;-71
2022/05/21 13:30:35;;;;;;;6.15;4.20;;;20.70;99.90;;;;;;5002736;28;20053;-71
2022/05/21 13:33:08;;;;;;;10.48;7.88;;;20.80;99.90;;;;;;4990821;28;20046;-70
2022/05/21 13:35:39;;;;;;;8.38;5.55;;;20.80;99.90;;;;;;4987839;28;20061;-71
2022/05/21 13:38:11;;;;;;;8.15;4.95;;;20.90;99.90;;;;;;4990474;28;20041;-71
2022/05/21 13:40:54;;;;;;;7.50;4.35;;;20.90;99.90;;;;;;4989167;28;20271;-71
2022/05/21 13:43:38;;;;;;;9.18;4.50;;;20.90;99.90;;;;;;4988591;28;20057;-71
2022/05/21 13:46:07;;;;;;;10.10;4.65;;;21.00;99.90;;;;;;4972164;28;20541;-71